createdAt,value
2018-01-15T00:08:01.440Z,18.03
2018-01-15T00:18:02.973Z,17.87
2018-01-15T00:28:04.537Z,18.00
2018-01-15T00:38:06.104Z,16.20
2018-01-15T00:48:07.688Z,18.20
2018-01-15T00:58:09.271Z,18.50
2018-01-15T01:08:11.543Z,18.40
2018-01-15T01:18:13.064Z,18.33
2018-01-15T01:28:14.649Z,17.30
2018-01-15T01:38:16.194Z,18.20
2018-01-15T01:48:17.884Z,18.03
2018-01-15T01:58:20.177Z,17.70
2018-01-15T02:08:21.736Z,17.10
2018-01-15T02:18:23.317Z,17.43
2018-01-15T02:28:24.760Z,17.30
2018-01-15T02:38:26.268Z,17.20
2018-01-15T02:48:27.800Z,16.33
2018-01-15T02:58:29.329Z,19.70
2018-01-15T03:08:30.832Z,19.13
2018-01-15T03:18:32.452Z,18.57
2018-01-15T03:28:33.940Z,19.00
2018-01-15T03:38:35.498Z,16.30
2018-01-15T03:48:37.196Z,19.43
2018-01-15T03:58:38.759Z,18.07
2018-01-15T04:08:40.308Z,16.37
2018-01-15T04:18:41.852Z,17.87
2018-01-15T04:28:43.368Z,17.90
2018-01-15T04:38:44.873Z,19.57
2018-01-15T04:48:47.140Z,19.03
2018-01-15T04:58:48.769Z,17.60
2018-01-15T05:08:50.315Z,19.07
2018-01-15T05:18:54.756Z,18.60
2018-01-15T05:28:57.595Z,17.50
2018-01-15T05:38:59.852Z,17.53
2018-01-15T05:49:01.418Z,18.40
2018-01-15T05:59:04.410Z,18.00
2018-01-15T06:09:06.075Z,18.50
2018-01-15T06:19:07.895Z,19.20
2018-01-15T06:29:09.460Z,19.30
2018-01-15T06:39:11.751Z,20.77
2018-01-15T06:49:13.970Z,20.10
2018-01-15T06:59:16.264Z,19.43
2018-01-15T07:09:18.523Z,18.50
2018-01-15T07:19:20.799Z,21.43
2018-01-15T07:29:22.318Z,19.83
2018-01-15T07:39:23.937Z,21.03
2018-01-15T07:49:26.205Z,20.87
2018-01-15T07:59:27.739Z,19.70
2018-01-15T08:09:29.228Z,20.63
2018-01-15T08:19:30.798Z,20.47
2018-01-15T08:29:32.311Z,22.07
2018-01-15T08:39:33.848Z,22.00
2018-01-15T08:49:35.381Z,25.13
2018-01-15T08:59:36.973Z,26.07
2018-01-15T09:09:38.492Z,25.43
2018-01-15T09:19:40.048Z,26.73
2018-01-15T09:29:42.348Z,26.33
2018-01-15T09:39:43.876Z,26.17
2018-01-15T09:49:45.430Z,25.57
2018-01-15T09:59:47.006Z,26.23
2018-01-15T10:09:48.522Z,25.47
2018-01-15T10:19:50.137Z,26.93
2018-01-15T10:29:51.707Z,25.73
2018-01-15T10:39:53.467Z,27.03
2018-01-15T10:49:55.751Z,25.70
2018-01-15T10:59:57.308Z,25.83
2018-01-15T11:09:58.845Z,25.87
2018-01-15T11:20:00.467Z,25.17
2018-01-15T11:30:02.033Z,25.40
2018-01-15T11:40:03.585Z,25.13
2018-01-15T11:50:05.867Z,24.63
2018-01-15T12:00:07.453Z,25.20
2018-01-15T12:10:09.006Z,24.57
2018-01-15T12:20:11.308Z,23.60
2018-01-15T12:30:13.561Z,24.73
2018-01-15T12:40:15.244Z,22.37
2018-01-15T12:50:16.962Z,23.97
2018-01-15T13:00:18.641Z,21.90
2018-01-15T13:10:20.963Z,21.97
2018-01-15T13:20:23.252Z,23.57
2018-01-15T13:30:24.849Z,21.00
2018-01-15T13:40:26.546Z,22.53
2018-01-15T13:50:28.083Z,23.20
2018-01-15T14:00:29.637Z,21.73
2018-01-15T14:10:31.121Z,22.60
2018-01-15T14:20:32.678Z,18.83
2018-01-15T14:30:34.944Z,19.20
2018-01-15T14:40:36.513Z,19.63
2018-01-15T14:50:38.077Z,16.90
2018-01-15T15:00:39.949Z,17.90
2018-01-15T15:10:41.508Z,17.70
2018-01-15T15:20:43.067Z,17.40
2018-01-15T15:30:44.597Z,15.70
2018-01-15T15:40:46.853Z,16.70
2018-01-15T15:50:48.509Z,17.60
2018-01-15T16:00:50.193Z,18.33
2018-01-15T16:10:51.744Z,20.00
2018-01-15T16:20:53.588Z,22.93
2018-01-15T16:30:55.193Z,20.93
2018-01-15T16:40:56.849Z,19.47
2018-01-15T16:50:58.436Z,19.33
2018-01-15T17:01:00.091Z,17.73
2018-01-15T17:11:03.270Z,17.80
2018-01-15T17:21:05.733Z,17.97
2018-01-15T17:31:07.434Z,18.33
2018-01-15T17:41:08.929Z,22.40
2018-01-15T17:51:10.485Z,16.17
2018-01-15T18:01:12.789Z,30.83
2018-01-15T18:11:14.327Z,20.70
2018-01-15T18:21:16.034Z,25.17
2018-01-15T18:31:17.681Z,19.70
2018-01-15T18:41:19.292Z,18.00
2018-01-15T18:51:20.815Z,18.33
2018-01-15T19:01:22.327Z,19.80
2018-01-15T19:11:23.879Z,15.57
2018-01-15T19:21:25.610Z,14.87
2018-01-15T19:31:28.054Z,13.80
2018-01-15T19:41:34.391Z,16.53
2018-01-15T19:51:42.107Z,10.87
2018-01-15T20:01:49.812Z,10.43
2018-01-15T20:11:51.752Z,9.23
2018-01-15T20:21:54.114Z,7.63
2018-01-15T20:31:55.886Z,6.60
2018-01-15T20:41:57.625Z,7.50
2018-01-15T20:51:59.270Z,7.00
2018-01-15T21:02:00.893Z,8.70
2018-01-15T21:12:02.545Z,7.43
2018-01-15T21:22:04.178Z,7.57
2018-01-15T21:32:06.524Z,5.83
2018-01-15T21:42:08.115Z,4.43
2018-01-15T21:52:10.562Z,4.80
2018-01-15T22:02:12.054Z,3.13
2018-01-15T22:12:13.630Z,2.97
2018-01-15T22:22:15.880Z,2.80
2018-01-15T22:32:17.483Z,3.27
2018-01-15T22:42:19.112Z,2.80
2018-01-15T22:52:20.655Z,1.27
2018-01-15T23:02:22.302Z,1.10
2018-01-15T23:12:23.820Z,0.80
2018-01-15T23:22:25.424Z,0.73
2018-01-15T23:32:26.967Z,0.90
2018-01-15T23:42:28.556Z,0.60
2018-01-15T23:52:30.087Z,1.40
